createdAt,value
2023-04-19T00:00:23.633Z,10.3395
2023-04-19T00:01:24.677Z,10.3483
2023-04-19T00:02:26.276Z,10.3546
2023-04-19T00:03:28.069Z,10.3612
2023-04-19T00:04:29.790Z,10.3658
2023-04-19T00:05:31.739Z,10.3711
2023-04-19T00:06:32.997Z,10.3762
2023-04-19T00:07:34.510Z,10.3815
2023-04-19T00:08:35.619Z,10.3871
2023-04-19T00:09:37.851Z,10.3926
2023-04-19T00:10:38.859Z,10.3965
2023-04-19T00:11:39.946Z,10.4033
2023-04-19T00:12:40.964Z,10.4063
2023-04-19T00:13:41.988Z,10.4116
2023-04-19T00:14:43.088Z,10.4164
2023-04-19T00:15:44.205Z,10.4204
2023-04-19T00:16:45.273Z,10.4241
2023-04-19T00:17:46.452Z,10.4254
2023-04-19T00:18:47.478Z,10.4292
2023-04-19T00:19:48.662Z,10.4311
2023-04-19T00:20:49.720Z,10.4340
2023-04-19T00:21:50.737Z,10.4362
2023-04-19T00:22:51.770Z,10.4382
2023-04-19T00:23:52.815Z,10.4399
2023-04-19T00:24:53.876Z,10.4411
2023-04-19T00:25:54.937Z,10.4429
2023-04-19T00:26:55.920Z,10.4439
2023-04-19T00:27:56.937Z,10.4445
2023-04-19T00:28:57.990Z,10.4448
2023-04-19T00:29:58.964Z,10.4455
2023-04-19T00:31:00.108Z,10.4446
2023-04-19T00:32:01.158Z,10.4446
2023-04-19T00:33:02.393Z,10.4434
2023-04-19T00:34:03.555Z,10.4420
2023-04-19T00:35:04.700Z,10.4417
2023-04-19T00:36:05.727Z,10.4407
2023-04-19T00:37:07.013Z,10.4404
2023-04-19T00:38:08.207Z,10.4408
2023-04-19T00:39:09.266Z,10.4400
2023-04-19T00:40:11.350Z,10.4397
2023-04-19T00:41:12.435Z,10.4407
2023-04-19T00:42:13.518Z,10.4380
2023-04-19T00:43:14.584Z,10.4350
2023-04-19T00:44:15.852Z,10.4328
2023-04-19T00:45:17.414Z,10.4311
2023-04-19T00:46:18.496Z,10.4297
2023-04-19T00:47:19.569Z,10.4281
2023-04-19T00:48:20.678Z,10.4281
2023-04-19T00:49:21.651Z,10.4275
2023-04-19T00:50:22.750Z,10.4270
2023-04-19T00:51:23.910Z,10.4277
2023-04-19T00:52:24.981Z,10.4270
2023-04-19T00:53:26.023Z,10.4273
2023-04-19T00:54:27.082Z,10.4278
2023-04-19T00:55:28.104Z,10.4287
2023-04-19T00:56:29.177Z,10.4294
2023-04-19T00:57:30.166Z,10.4310
2023-04-19T00:58:31.252Z,10.4305
2023-04-19T00:59:32.269Z,10.4321
2023-04-19T01:00:33.305Z,10.4324
2023-04-19T01:01:34.463Z,10.4324
2023-04-19T01:02:35.748Z,10.4327
2023-04-19T01:03:37.363Z,10.4329
2023-04-19T01:04:39.363Z,10.4337
2023-04-19T01:05:40.495Z,10.4328
2023-04-19T01:06:41.572Z,10.4320
2023-04-19T01:07:42.616Z,10.4317
2023-04-19T01:08:43.665Z,10.4292
2023-04-19T01:09:44.738Z,10.4283
2023-04-19T01:10:45.769Z,10.4280
2023-04-19T01:11:46.917Z,10.4280
2023-04-19T01:12:47.974Z,10.4271
2023-04-19T01:13:49.072Z,10.4254
2023-04-19T01:14:50.092Z,10.4244
2023-04-19T01:15:51.169Z,10.4227
2023-04-19T01:16:52.186Z,10.4201
2023-04-19T01:17:53.304Z,10.4145
2023-04-19T01:18:54.370Z,10.4120
2023-04-19T01:19:55.428Z,10.4068
2023-04-19T01:20:56.440Z,10.4013
2023-04-19T01:21:57.487Z,10.3936
2023-04-19T01:22:58.503Z,10.3886
2023-04-19T01:23:59.540Z,10.3840
2023-04-19T01:25:00.579Z,10.3782
2023-04-19T01:26:01.604Z,10.3727
2023-04-19T01:27:02.684Z,10.3665
2023-04-19T01:28:03.750Z,10.3619
2023-04-19T01:29:04.792Z,10.3568
2023-04-19T01:30:05.813Z,10.3520
2023-04-19T01:31:06.911Z,10.3485
2023-04-19T01:32:08.046Z,10.3451
2023-04-19T01:33:09.149Z,10.3419
2023-04-19T01:34:10.177Z,10.3398
2023-04-19T01:35:11.298Z,10.3382
2023-04-19T01:36:12.348Z,10.3360
2023-04-19T01:37:13.430Z,10.3346
2023-04-19T01:38:14.602Z,10.3332
2023-04-19T01:39:15.785Z,10.3312
2023-04-19T01:40:16.919Z,10.3286
2023-04-19T01:41:17.957Z,10.3278
2023-04-19T01:42:19.098Z,10.3260
2023-04-19T01:43:20.184Z,10.3234
2023-04-19T01:44:21.222Z,10.3213
2023-04-19T01:45:22.267Z,10.3190
2023-04-19T01:46:23.345Z,10.3175
2023-04-19T01:47:24.423Z,10.3139
2023-04-19T01:48:25.472Z,10.3103
2023-04-19T01:49:26.481Z,10.3056
2023-04-19T01:50:27.517Z,10.2995
2023-04-19T01:51:28.557Z,10.2933
2023-04-19T01:52:29.653Z,10.2839
2023-04-19T01:53:30.696Z,10.2751
2023-04-19T01:54:31.715Z,10.2663
2023-04-19T01:55:32.750Z,10.2573
2023-04-19T01:56:33.751Z,10.2488
2023-04-19T01:57:34.851Z,10.2404
2023-04-19T01:58:35.866Z,10.2332
2023-04-19T01:59:36.941Z,10.2242
2023-04-19T02:00:39.045Z,10.2145
2023-04-19T02:01:40.089Z,10.2051
2023-04-19T02:02:41.309Z,10.1955
2023-04-19T02:03:42.864Z,10.1877
2023-04-19T02:04:44.587Z,10.1787
2023-04-19T02:05:45.628Z,10.1716
2023-04-19T02:06:46.642Z,10.1656
2023-04-19T02:07:47.727Z,10.1596
2023-04-19T02:08:48.708Z,10.1535
2023-04-19T02:09:49.820Z,10.1474
2023-04-19T02:10:50.955Z,10.1409
2023-04-19T02:11:52.350Z,10.1351
2023-04-19T02:12:53.381Z,10.1307
2023-04-19T02:13:54.420Z,10.1275
2023-04-19T02:14:55.516Z,10.1248
2023-04-19T02:15:56.620Z,10.1225
2023-04-19T02:16:57.880Z,10.1200
2023-04-19T02:17:59.138Z,10.1192
2023-04-19T02:19:00.184Z,10.1195
2023-04-19T02:20:01.198Z,10.1210
2023-04-19T02:21:02.287Z,10.1216
2023-04-19T02:22:03.372Z,10.1240
2023-04-19T02:23:04.440Z,10.1253
2023-04-19T02:24:05.512Z,10.1269
2023-04-19T02:25:06.603Z,10.1280
2023-04-19T02:26:07.653Z,10.1309
2023-04-19T02:27:08.636Z,10.1324
2023-04-19T02:28:09.756Z,10.1339
2023-04-19T02:29:10.835Z,10.1353
2023-04-19T02:30:11.992Z,10.1375
2023-04-19T02:31:13.050Z,10.1385
2023-04-19T02:32:14.130Z,10.1412
2023-04-19T02:33:15.204Z,10.1433
2023-04-19T02:34:16.693Z,10.1464
2023-04-19T02:35:16.595Z,10.1482
2023-04-19T02:36:17.700Z,10.1513
2023-04-19T02:37:18.765Z,10.1527
2023-04-19T02:38:19.834Z,10.1550
2023-04-19T02:39:20.898Z,10.1578
2023-04-19T02:40:21.942Z,10.1595
2023-04-19T02:41:23.005Z,10.1625
2023-04-19T02:42:24.051Z,10.1650
2023-04-19T02:43:25.165Z,10.1688
2023-04-19T02:44:26.148Z,10.1721
2023-04-19T02:45:27.197Z,10.1751
2023-04-19T02:46:28.299Z,10.1776
2023-04-19T02:47:29.464Z,10.1803
2023-04-19T02:48:30.537Z,10.1821
2023-04-19T02:49:31.585Z,10.1848
2023-04-19T02:50:32.629Z,10.1875
2023-04-19T02:51:33.633Z,10.1896
2023-04-19T02:52:34.584Z,10.1912
2023-04-19T02:53:35.632Z,10.1918
2023-04-19T02:54:36.667Z,10.1931
2023-04-19T02:55:37.768Z,10.1947
2023-04-19T02:56:38.781Z,10.1962
2023-04-19T02:57:39.835Z,10.1973
2023-04-19T02:58:41.134Z,10.1983
2023-04-19T02:59:42.166Z,10.1991
2023-04-19T03:00:43.153Z,10.1996
2023-04-19T03:01:44.218Z,10.2007
2023-04-19T03:02:45.394Z,10.2012
2023-04-19T03:03:46.654Z,10.2026
2023-04-19T03:04:47.890Z,10.2034
2023-04-19T03:05:48.942Z,10.2040
2023-04-19T03:06:49.978Z,10.2046
2023-04-19T03:07:51.033Z,10.2039
2023-04-19T03:08:52.076Z,10.2042
2023-04-19T03:09:53.159Z,10.2039
2023-04-19T03:10:54.145Z,10.2042
2023-04-19T03:11:55.216Z,10.2032
2023-04-19T03:12:56.312Z,10.2029
2023-04-19T03:13:57.331Z,10.2028
2023-04-19T03:14:58.397Z,10.2025
2023-04-19T03:15:59.505Z,10.2004
2023-04-19T03:17:00.535Z,10.1996
2023-04-19T03:18:01.617Z,10.1997
2023-04-19T03:19:02.744Z,10.1966
2023-04-19T03:20:03.813Z,10.1939
2023-04-19T03:21:04.826Z,10.1898
2023-04-19T03:22:05.886Z,10.1860
2023-04-19T03:23:06.926Z,10.1821
2023-04-19T03:24:07.955Z,10.1798
2023-04-19T03:25:09.004Z,10.1760
2023-04-19T03:26:09.994Z,10.1732
2023-04-19T03:27:11.034Z,10.1704
2023-04-19T03:28:12.039Z,10.1681
2023-04-19T03:29:13.056Z,10.1650
2023-04-19T03:30:14.116Z,10.1611
2023-04-19T03:31:15.205Z,10.1574
2023-04-19T03:32:16.249Z,10.1545
2023-04-19T03:33:17.398Z,10.1503
2023-04-19T03:34:18.478Z,10.1470
2023-04-19T03:35:19.571Z,10.1452
2023-04-19T03:36:20.538Z,10.1441
2023-04-19T03:37:21.548Z,10.1417
2023-04-19T03:38:22.631Z,10.1388
2023-04-19T03:39:23.708Z,10.1370
2023-04-19T03:40:24.754Z,10.1355
2023-04-19T03:41:25.777Z,10.1322
2023-04-19T03:42:28.860Z,10.1307
2023-04-19T03:43:28.102Z,10.1283
2023-04-19T03:44:29.170Z,10.1277
2023-04-19T03:45:30.182Z,10.1259
2023-04-19T03:46:31.290Z,10.1244
2023-04-19T03:47:32.414Z,10.1238
2023-04-19T03:48:33.568Z,10.1232
2023-04-19T03:49:34.681Z,10.1227
2023-04-19T03:50:35.691Z,10.1224
2023-04-19T03:51:36.795Z,10.1229
2023-04-19T03:52:37.823Z,10.1222
2023-04-19T03:53:38.870Z,10.1210
2023-04-19T03:54:39.965Z,10.1200
2023-04-19T03:55:41.024Z,10.1193
2023-04-19T03:56:42.018Z,10.1177
2023-04-19T03:57:43.296Z,10.1165
2023-04-19T03:58:44.503Z,10.1152
2023-04-19T03:59:45.632Z,10.1144
2023-04-19T04:00:46.670Z,10.1127
2023-04-19T04:01:48.852Z,10.1118
2023-04-19T04:02:50.262Z,10.1093
2023-04-19T04:03:52.107Z,10.1087
2023-04-19T04:04:52.129Z,10.1082
2023-04-19T04:05:53.779Z,10.1073
2023-04-19T04:06:54.780Z,10.1058
2023-04-19T04:07:55.856Z,10.1054
2023-04-19T04:08:56.911Z,10.1035
2023-04-19T04:09:57.955Z,10.1024
2023-04-19T04:10:59.024Z,10.1003
2023-04-19T04:12:00.021Z,10.0987
2023-04-19T04:13:01.137Z,10.0969
2023-04-19T04:14:02.142Z,10.0951
2023-04-19T04:15:03.251Z,10.0938
2023-04-19T04:16:04.309Z,10.0924
2023-04-19T04:17:05.375Z,10.0902
2023-04-19T04:18:08.562Z,10.0882
2023-04-19T04:19:07.942Z,10.0879
2023-04-19T04:20:09.044Z,10.0862
2023-04-19T04:21:10.148Z,10.0852
2023-04-19T04:22:11.149Z,10.0855
2023-04-19T04:23:12.235Z,10.0850
2023-04-19T04:24:13.327Z,10.0860
2023-04-19T04:25:14.921Z,10.0870
2023-04-19T04:26:15.962Z,10.0876
2023-04-19T04:27:17.011Z,10.0882
2023-04-19T04:28:18.042Z,10.0875
2023-04-19T04:29:19.067Z,10.0877
2023-04-19T04:30:20.122Z,10.0871
2023-04-19T04:31:21.171Z,10.0852
2023-04-19T04:32:23.510Z,10.0834
2023-04-19T04:33:24.968Z,10.0828
2023-04-19T04:34:26.031Z,10.0831
2023-04-19T04:35:27.082Z,10.0812
2023-04-19T04:36:28.173Z,10.0805
2023-04-19T04:37:29.228Z,10.0809
2023-04-19T04:38:30.297Z,10.0798
2023-04-19T04:39:31.424Z,10.0800
2023-04-19T04:40:32.567Z,10.0803
2023-04-19T04:41:33.652Z,10.0802
2023-04-19T04:42:35.555Z,10.0808
2023-04-19T04:43:36.617Z,10.0817
2023-04-19T04:44:37.736Z,10.0831
2023-04-19T04:45:38.803Z,10.0849
2023-04-19T04:46:39.899Z,10.0863
2023-04-19T04:47:40.984Z,10.0898
2023-04-19T04:48:42.025Z,10.0920
2023-04-19T04:49:43.015Z,10.0943
2023-04-19T04:50:44.153Z,10.0973
2023-04-19T04:51:45.146Z,10.0988
2023-04-19T04:52:46.189Z,10.0994
2023-04-19T04:53:47.417Z,10.1019
2023-04-19T04:54:48.478Z,10.1036
2023-04-19T04:55:49.549Z,10.1047
2023-04-19T04:56:50.633Z,10.1045
2023-04-19T04:57:51.681Z,10.1053
2023-04-19T04:58:52.724Z,10.1056
2023-04-19T04:59:53.778Z,10.1064
2023-04-19T05:00:54.846Z,10.1069
2023-04-19T05:01:55.886Z,10.1064
2023-04-19T05:02:57.030Z,10.1067
2023-04-19T05:03:58.136Z,10.1066
2023-04-19T05:04:59.157Z,10.1070
2023-04-19T05:06:00.225Z,10.1067
2023-04-19T05:07:01.222Z,10.1071
2023-04-19T05:08:02.343Z,10.1080
2023-04-19T05:09:03.370Z,10.1078
2023-04-19T05:10:04.424Z,10.1084
2023-04-19T05:11:05.511Z,10.1100
2023-04-19T05:12:06.507Z,10.1119
2023-04-19T05:13:07.553Z,10.1145
2023-04-19T05:14:08.609Z,10.1173
2023-04-19T05:15:09.685Z,10.1198
2023-04-19T05:16:10.698Z,10.1236
2023-04-19T05:17:11.735Z,10.1265
2023-04-19T05:18:12.759Z,10.1305
2023-04-19T05:19:13.781Z,10.1340
2023-04-19T05:20:14.850Z,10.1357
2023-04-19T05:21:15.889Z,10.1388
2023-04-19T05:22:16.894Z,10.1425
2023-04-19T05:23:17.909Z,10.1453
2023-04-19T05:24:19.129Z,10.1482
2023-04-19T05:25:20.246Z,10.1508
2023-04-19T05:26:21.297Z,10.1531
2023-04-19T05:27:22.514Z,10.1553
2023-04-19T05:28:23.582Z,10.1587
2023-04-19T05:29:24.565Z,10.1621
2023-04-19T05:30:25.535Z,10.1663
2023-04-19T05:31:26.613Z,10.1711
2023-04-19T05:32:27.759Z,10.1751
2023-04-19T05:33:28.832Z,10.1807
2023-04-19T05:34:29.872Z,10.1872
2023-04-19T05:35:30.892Z,10.1947
2023-04-19T05:36:31.923Z,10.1998
2023-04-19T05:37:32.935Z,10.2069
2023-04-19T05:38:33.977Z,10.2149
2023-04-19T05:39:34.966Z,10.2233
2023-04-19T05:40:35.981Z,10.2305
2023-04-19T05:41:37.055Z,10.2377
2023-04-19T05:42:38.076Z,10.2452
2023-04-19T05:43:39.073Z,10.2524
2023-04-19T05:44:40.158Z,10.2595
2023-04-19T05:45:41.186Z,10.2663
2023-04-19T05:46:42.250Z,10.2721
2023-04-19T05:47:43.407Z,10.2785
2023-04-19T05:48:44.446Z,10.2856
2023-04-19T05:49:45.437Z,10.2922
2023-04-19T05:50:46.397Z,10.2997
2023-04-19T05:51:47.467Z,10.3060
2023-04-19T05:52:48.478Z,10.3123
2023-04-19T05:53:49.507Z,10.3180
2023-04-19T05:54:50.501Z,10.3220
2023-04-19T05:55:51.510Z,10.3275
2023-04-19T05:56:52.556Z,10.3328
2023-04-19T05:57:53.544Z,10.3387
2023-04-19T05:58:54.572Z,10.3449
2023-04-19T05:59:55.575Z,10.3511
2023-04-19T06:00:56.584Z,10.3547
2023-04-19T06:01:57.718Z,10.3585
2023-04-19T06:02:58.946Z,10.3619
2023-04-19T06:04:00.426Z,10.3663
2023-04-19T06:05:05.140Z,10.3715
2023-04-19T06:06:03.023Z,10.3769
2023-04-19T06:07:06.205Z,10.3837
2023-04-19T06:08:06.238Z,10.3894
2023-04-19T06:09:07.246Z,10.3952
2023-04-19T06:10:08.272Z,10.4021
2023-04-19T06:11:20.105Z,10.4093
2023-04-19T06:12:10.900Z,10.4167
2023-04-19T06:13:11.891Z,10.4241
2023-04-19T06:14:12.950Z,10.4308
2023-04-19T06:15:13.994Z,10.4370
2023-04-19T06:16:15.096Z,10.4419
2023-04-19T06:17:16.157Z,10.4470
2023-04-19T06:18:18.928Z,10.4520
2023-04-19T06:19:19.022Z,10.4563
2023-04-19T06:20:20.044Z,10.4601
2023-04-19T06:21:21.002Z,10.4644
2023-04-19T06:22:22.005Z,10.4688
2023-04-19T06:23:22.976Z,10.4727
2023-04-19T06:24:23.978Z,10.4775
2023-04-19T06:25:24.933Z,10.4824
2023-04-19T06:26:25.930Z,10.4872
2023-04-19T06:27:26.980Z,10.4919
2023-04-19T06:28:27.952Z,10.4978
2023-04-19T06:29:28.939Z,10.5024
2023-04-19T06:30:29.932Z,10.5065
2023-04-19T06:31:31.042Z,10.5114
2023-04-19T06:32:32.167Z,10.5154
2023-04-19T06:33:33.252Z,10.5190
2023-04-19T06:34:34.246Z,10.5224
2023-04-19T06:35:35.266Z,10.5274
2023-04-19T06:36:36.425Z,10.5320
2023-04-19T06:37:37.461Z,10.5356
2023-04-19T06:38:38.482Z,10.5377
2023-04-19T06:39:39.505Z,10.5423
2023-04-19T06:40:40.563Z,10.5469
2023-04-19T06:41:41.558Z,10.5512
2023-04-19T06:42:42.647Z,10.5562
2023-04-19T06:43:43.673Z,10.5631
2023-04-19T06:44:44.632Z,10.5714
2023-04-19T06:45:45.688Z,10.5791
2023-04-19T06:46:46.763Z,10.5864
2023-04-19T06:47:47.764Z,10.5940
2023-04-19T06:48:48.795Z,10.6033
2023-04-19T06:49:49.805Z,10.6121
2023-04-19T06:50:50.821Z,10.6199
2023-04-19T06:51:51.814Z,10.6283
2023-04-19T06:52:52.844Z,10.6394
2023-04-19T06:53:53.914Z,10.6497
2023-04-19T06:54:54.957Z,10.6578
2023-04-19T06:55:55.970Z,10.6659
2023-04-19T06:56:57.014Z,10.6733
2023-04-19T06:57:58.076Z,10.6805
2023-04-19T06:58:59.111Z,10.6891
2023-04-19T07:00:00.127Z,10.6980
2023-04-19T07:01:01.134Z,10.7063
2023-04-19T07:02:02.277Z,10.7144
2023-04-19T07:03:03.489Z,10.7233
2023-04-19T07:04:05.555Z,10.7322
2023-04-19T07:05:07.057Z,10.7436
2023-04-19T07:06:08.064Z,10.7559
2023-04-19T07:07:09.092Z,10.7683
2023-04-19T07:08:10.095Z,10.7821
2023-04-19T07:09:11.090Z,10.7961
2023-04-19T07:10:12.094Z,10.8107
2023-04-19T07:11:13.125Z,10.8258
2023-04-19T07:12:14.185Z,10.8411
2023-04-19T07:13:15.240Z,10.8539
2023-04-19T07:14:16.532Z,10.8685
2023-04-19T07:15:18.148Z,10.8824
2023-04-19T07:16:19.243Z,10.8971
2023-04-19T07:17:20.273Z,10.9125
2023-04-19T07:18:21.294Z,10.9288
2023-04-19T07:19:22.299Z,10.9477
2023-04-19T07:20:23.379Z,10.9677
2023-04-19T07:21:24.440Z,10.9854
2023-04-19T07:22:25.472Z,11.0044
2023-04-19T07:23:27.562Z,11.0237
2023-04-19T07:24:28.637Z,11.0475
2023-04-19T07:25:29.721Z,11.0740
2023-04-19T07:26:30.852Z,11.0976
2023-04-19T07:27:31.881Z,11.1238
2023-04-19T07:28:32.873Z,11.1511
2023-04-19T07:29:33.902Z,11.1795
2023-04-19T07:30:34.869Z,11.2068
2023-04-19T07:31:35.927Z,11.2311
2023-04-19T07:32:37.093Z,11.2547
2023-04-19T07:33:38.784Z,11.2748
2023-04-19T07:34:39.779Z,11.2934
2023-04-19T07:35:41.190Z,11.3093
2023-04-19T07:36:42.206Z,11.3269
2023-04-19T07:37:43.297Z,11.3454
2023-04-19T07:38:45.400Z,11.3641
2023-04-19T07:39:46.386Z,11.3851
2023-04-19T07:40:47.364Z,11.4083
2023-04-19T07:41:48.360Z,11.4271
2023-04-19T07:42:49.409Z,11.4442
2023-04-19T07:43:50.471Z,11.4617
2023-04-19T07:44:51.441Z,11.4782
2023-04-19T07:45:52.471Z,11.4975
2023-04-19T07:46:53.501Z,11.5177
2023-04-19T07:47:55.080Z,11.5376
2023-04-19T07:48:56.130Z,11.5596
2023-04-19T07:49:57.193Z,11.5818
2023-04-19T07:50:58.228Z,11.6058
2023-04-19T07:51:59.243Z,11.6253
2023-04-19T07:53:00.247Z,11.6435
2023-04-19T07:54:01.348Z,11.6616
2023-04-19T07:55:02.651Z,11.6780
2023-04-19T07:56:03.616Z,11.6937
2023-04-19T07:57:04.676Z,11.7093
2023-04-19T07:58:05.679Z,11.7185
2023-04-19T07:59:08.829Z,11.7285
2023-04-19T08:00:08.425Z,11.7377
2023-04-19T08:01:09.430Z,11.7453
2023-04-19T08:02:10.544Z,11.7527
2023-04-19T08:03:11.967Z,11.7598
2023-04-19T08:04:13.527Z,11.7675
2023-04-19T08:05:15.711Z,11.7757
2023-04-19T08:06:16.870Z,11.7851
2023-04-19T08:07:17.854Z,11.7971
2023-04-19T08:08:18.856Z,11.8083
2023-04-19T08:09:19.889Z,11.8200
2023-04-19T08:10:22.339Z,11.8326
2023-04-19T08:11:21.222Z,11.8455
2023-04-19T08:12:34.641Z,11.8580
2023-04-19T08:13:23.861Z,11.8692
2023-04-19T08:14:34.597Z,11.8820
2023-04-19T08:15:50.997Z,11.8946
2023-04-19T08:17:01.369Z,11.9075
2023-04-19T08:17:37.079Z,11.9208
2023-04-19T08:18:31.472Z,11.9329
2023-04-19T08:19:32.502Z,11.9455
2023-04-19T08:20:33.519Z,11.9573
2023-04-19T08:21:40.575Z,11.9676
2023-04-19T08:22:36.225Z,11.9777
2023-04-19T08:23:47.243Z,11.9881
2023-04-19T08:24:38.911Z,11.9975
2023-04-19T08:25:39.929Z,12.0079
2023-04-19T08:26:40.900Z,12.0191
2023-04-19T08:27:41.832Z,12.0331
2023-04-19T08:28:43.598Z,12.0475
2023-04-19T08:29:44.645Z,12.0661
2023-04-19T08:30:45.635Z,12.0862
2023-04-19T08:31:46.669Z,12.1103
2023-04-19T08:32:47.693Z,12.1351
2023-04-19T08:33:48.759Z,12.1588
2023-04-19T08:34:49.832Z,12.1826
2023-04-19T08:35:50.827Z,12.2042
2023-04-19T08:37:02.689Z,12.2257
2023-04-19T08:37:53.434Z,12.2488
2023-04-19T08:39:04.096Z,12.2625
2023-04-19T08:39:56.063Z,12.2764
2023-04-19T08:40:57.055Z,12.2860
2023-04-19T08:42:07.087Z,12.2925
2023-04-19T08:42:59.736Z,12.2973
2023-04-19T08:44:00.771Z,12.3035
2023-04-19T08:45:25.998Z,12.3073
2023-04-19T08:46:02.657Z,12.3104
2023-04-19T08:47:03.737Z,12.3164
2023-04-19T08:48:04.868Z,12.3220
2023-04-19T08:49:06.015Z,12.3307
2023-04-19T08:50:17.531Z,12.3440
2023-04-19T08:51:09.124Z,12.3563
2023-04-19T08:52:10.103Z,12.3694
2023-04-19T08:54:11.514Z,12.3895
2023-04-19T08:55:12.630Z,12.3998
2023-04-19T08:56:21.089Z,12.4090
2023-04-19T08:57:15.488Z,12.4172
2023-04-19T08:58:28.564Z,12.4278
2023-04-19T08:59:18.794Z,12.4390
2023-04-19T09:00:19.006Z,12.4511
2023-04-19T09:01:33.989Z,12.4636
2023-04-19T09:02:21.725Z,12.4763
2023-04-19T09:03:23.147Z,12.4871
2023-04-19T09:05:25.129Z,12.5078
2023-04-19T09:06:27.008Z,12.5228
2023-04-19T09:07:28.933Z,12.5389
2023-04-19T09:08:29.969Z,12.5550
2023-04-19T09:09:36.994Z,12.5697
2023-04-19T09:10:32.593Z,12.5844
2023-04-19T09:11:33.546Z,12.6008
2023-04-19T09:12:34.496Z,12.6200
2023-04-19T09:13:35.461Z,12.6447
2023-04-19T09:14:36.460Z,12.6750
2023-04-19T09:15:37.453Z,12.7111
2023-04-19T09:16:38.554Z,12.7538
2023-04-19T09:17:39.858Z,12.8010
2023-04-19T09:18:53.380Z,12.8567
2023-04-19T09:19:42.431Z,12.9222
2023-04-19T09:20:43.384Z,12.9830
2023-04-19T09:21:44.378Z,13.0506
2023-04-19T09:22:45.440Z,13.1165
2023-04-19T09:23:46.497Z,13.1790
2023-04-19T09:25:13.951Z,13.2361
2023-04-19T09:26:48.644Z,13.3443
2023-04-19T09:27:49.594Z,13.3931
2023-04-19T09:28:50.579Z,13.4415
2023-04-19T09:29:51.520Z,13.4855
2023-04-19T09:31:02.488Z,13.5302
2023-04-19T09:31:54.189Z,13.5691
2023-04-19T09:32:55.466Z,13.6007
2023-04-19T09:33:56.451Z,13.6326
2023-04-19T09:34:57.466Z,13.6618
2023-04-19T09:35:58.469Z,13.6899
2023-04-19T09:37:11.035Z,13.7161
2023-04-19T09:38:05.849Z,13.7401
2023-04-19T09:39:01.292Z,13.7657
2023-04-19T09:40:02.280Z,13.7925
2023-04-19T09:41:03.246Z,13.8196
2023-04-19T09:42:04.271Z,13.8517
2023-04-19T09:43:17.941Z,13.8872
2023-04-19T09:44:26.871Z,13.9285
2023-04-19T09:46:09.173Z,14.0124
2023-04-19T09:47:10.162Z,14.0501
2023-04-19T09:48:11.285Z,14.0844
2023-04-19T09:49:21.236Z,14.1164
2023-04-19T09:51:15.234Z,14.1820
2023-04-19T09:52:16.626Z,14.2104
2023-04-19T09:53:17.586Z,14.2373
2023-04-19T09:54:18.529Z,14.2671
2023-04-19T09:55:26.996Z,14.2964
2023-04-19T09:56:19.499Z,14.3199
2023-04-19T09:57:20.444Z,14.3399
2023-04-19T09:58:21.358Z,14.3535
2023-04-19T09:59:22.832Z,14.3662
2023-04-19T10:00:24.052Z,14.3780
2023-04-19T10:01:25.087Z,14.3903
2023-04-19T10:02:26.173Z,14.4019
2023-04-19T10:03:27.782Z,14.4106
2023-04-19T10:05:29.699Z,14.4090
2023-04-19T10:06:40.462Z,14.4027
2023-04-19T10:07:32.447Z,14.3889
2023-04-19T10:08:33.719Z,14.3805
2023-04-19T10:09:40.051Z,14.3709
2023-04-19T10:10:41.666Z,14.3630
2023-04-19T10:11:37.590Z,14.3613
2023-04-19T10:12:59.031Z,14.3654
2023-04-19T10:13:39.556Z,14.3702
2023-04-19T10:14:40.523Z,14.3756
2023-04-19T10:15:50.216Z,14.3786
2023-04-19T10:16:43.185Z,14.3776
2023-04-19T10:17:44.272Z,14.3756
2023-04-19T10:18:45.204Z,14.3716
2023-04-19T10:19:46.180Z,14.3688
2023-04-19T10:20:47.167Z,14.3675
2023-04-19T10:21:48.111Z,14.3669
2023-04-19T10:22:49.056Z,14.3661
2023-04-19T10:23:50.020Z,14.3660
2023-04-19T10:24:50.947Z,14.3665
2023-04-19T10:25:51.895Z,14.3684
2023-04-19T10:26:52.919Z,14.3696
2023-04-19T10:27:53.921Z,14.3694
2023-04-19T10:28:54.874Z,14.3689
2023-04-19T10:29:55.846Z,14.3687
2023-04-19T10:30:56.806Z,14.3720
2023-04-19T10:31:57.859Z,14.3784
2023-04-19T10:32:58.807Z,14.3854
2023-04-19T10:33:59.808Z,14.3955
2023-04-19T10:35:00.775Z,14.4106
2023-04-19T10:36:01.698Z,14.4348
2023-04-19T10:37:02.752Z,14.4709
2023-04-19T10:38:03.685Z,14.5137
2023-04-19T10:39:04.659Z,14.5593
2023-04-19T10:40:05.584Z,14.6075
2023-04-19T10:41:06.513Z,14.6538
2023-04-19T10:42:07.446Z,14.6938
2023-04-19T10:43:08.385Z,14.7253
2023-04-19T10:44:09.424Z,14.7454
2023-04-19T10:45:10.377Z,14.7556
2023-04-19T10:46:11.372Z,14.7558
2023-04-19T10:47:14.584Z,14.7495
2023-04-19T10:48:13.604Z,14.7370
2023-04-19T10:49:14.914Z,14.7227
2023-04-19T10:50:14.640Z,14.7089
2023-04-19T10:51:15.604Z,14.6937
2023-04-19T10:52:16.580Z,14.6817
2023-04-19T10:53:17.576Z,14.6703
2023-04-19T10:54:18.514Z,14.6600
2023-04-19T10:55:19.445Z,14.6515
2023-04-19T10:56:20.374Z,14.6418
2023-04-19T10:57:21.427Z,14.6322
2023-04-19T10:58:22.397Z,14.6205
2023-04-19T10:59:23.342Z,14.6094
2023-04-19T11:00:24.357Z,14.5971
2023-04-19T11:01:25.369Z,14.5854
2023-04-19T11:02:26.561Z,14.5756
2023-04-19T11:03:27.743Z,14.5669
2023-04-19T11:04:29.137Z,14.5598
2023-04-19T11:05:30.192Z,14.5545
2023-04-19T11:06:31.245Z,14.5497
2023-04-19T11:07:32.183Z,14.5458
2023-04-19T11:08:33.107Z,14.5411
2023-04-19T11:09:34.093Z,14.5358
2023-04-19T11:10:35.082Z,14.5295
2023-04-19T11:11:36.158Z,14.5236
2023-04-19T11:12:37.148Z,14.5187
2023-04-19T11:13:38.072Z,14.5133
2023-04-19T11:14:39.029Z,14.5099
2023-04-19T11:15:40.065Z,14.5072
2023-04-19T11:16:46.129Z,14.5048
2023-04-19T11:17:41.264Z,14.5034
2023-04-19T11:18:42.212Z,14.5060
2023-04-19T11:19:43.124Z,14.5110
2023-04-19T11:20:44.122Z,14.5177
2023-04-19T11:21:45.074Z,14.5244
2023-04-19T11:22:45.990Z,14.5297
2023-04-19T11:23:47.921Z,14.5388
2023-04-19T11:24:48.852Z,14.5513
2023-04-19T11:25:49.817Z,14.5714
2023-04-19T11:26:51.682Z,14.5951
2023-04-19T11:27:51.926Z,14.6239
2023-04-19T11:28:52.844Z,14.6528
2023-04-19T11:29:53.806Z,14.6878
2023-04-19T11:30:54.785Z,14.7294
2023-04-19T11:31:55.752Z,14.7709
2023-04-19T11:32:56.792Z,14.8164
2023-04-19T11:33:57.990Z,14.8587
2023-04-19T11:34:58.876Z,14.9008
2023-04-19T11:35:59.834Z,14.9437
2023-04-19T11:37:00.821Z,14.9761
2023-04-19T11:38:01.789Z,15.0029
2023-04-19T11:39:02.841Z,15.0254
2023-04-19T11:40:04.877Z,15.0442
2023-04-19T11:41:04.236Z,15.0624
2023-04-19T11:42:05.209Z,15.0760
2023-04-19T11:43:06.220Z,15.0825
2023-04-19T11:44:07.182Z,15.0829
2023-04-19T11:45:18.627Z,15.0817
2023-04-19T11:46:09.793Z,15.0742
2023-04-19T11:47:10.808Z,15.0661
2023-04-19T11:48:11.777Z,15.0531
2023-04-19T11:49:12.842Z,15.0370
2023-04-19T11:50:13.920Z,15.0200
2023-04-19T11:51:14.825Z,15.0065
2023-04-19T11:52:15.841Z,14.9947
2023-04-19T11:53:16.813Z,14.9906
2023-04-19T11:54:18.055Z,14.9889
2023-04-19T11:55:19.575Z,14.9917
2023-04-19T11:56:20.555Z,14.9956
2023-04-19T11:57:21.764Z,15.0007
2023-04-19T11:58:22.785Z,15.0070
2023-04-19T11:59:23.741Z,15.0121
2023-04-19T12:00:24.703Z,15.0209
2023-04-19T12:01:25.724Z,15.0297
2023-04-19T12:02:26.879Z,15.0388
2023-04-19T12:03:28.448Z,15.0453
2023-04-19T12:04:30.094Z,15.0519
2023-04-19T12:05:31.503Z,15.0610
2023-04-19T12:06:32.862Z,15.0671
2023-04-19T12:07:33.895Z,15.0728
2023-04-19T12:08:34.902Z,15.0789
2023-04-19T12:09:35.881Z,15.0822
2023-04-19T12:10:36.828Z,15.0846
2023-04-19T12:11:38.842Z,15.0845
2023-04-19T12:12:39.796Z,15.0862
2023-04-19T12:13:40.752Z,15.0890
2023-04-19T12:14:41.671Z,15.0929
2023-04-19T12:15:42.641Z,15.0966
2023-04-19T12:16:43.651Z,15.0962
2023-04-19T12:17:54.611Z,15.0899
2023-04-19T12:18:46.177Z,15.0761
2023-04-19T12:19:47.449Z,15.0655
2023-04-19T12:20:48.351Z,15.0530
2023-04-19T12:21:49.284Z,15.0416
2023-04-19T12:22:50.276Z,15.0353
2023-04-19T12:23:51.276Z,15.0289
2023-04-19T12:24:52.232Z,15.0195